createdAt,value
2023-03-20T00:01:55.802Z,100.00
2023-03-20T00:04:23.459Z,100.00
2023-03-20T00:06:51.184Z,100.00
2023-03-20T00:09:19.311Z,100.00
2023-03-20T00:11:49.565Z,100.00
2023-03-20T00:14:18.757Z,100.00
2023-03-20T00:16:48.876Z,100.00
2023-03-20T00:19:19.232Z,100.00
2023-03-20T00:21:48.012Z,100.00
2023-03-20T00:24:16.709Z,100.00
2023-03-20T00:26:45.789Z,100.00
2023-03-20T00:29:16.960Z,100.00
2023-03-20T00:31:45.082Z,100.00
2023-03-20T00:34:15.152Z,100.00
2023-03-20T00:36:44.651Z,100.00
2023-03-20T00:39:12.294Z,100.00
2023-03-20T00:41:43.359Z,100.00
2023-03-20T00:44:22.448Z,100.00
2023-03-20T00:46:52.144Z,100.00
2023-03-20T00:49:28.264Z,100.00
2023-03-20T00:51:58.240Z,100.00
2023-03-20T00:54:26.112Z,100.00
2023-03-20T00:56:57.378Z,100.00
2023-03-20T00:59:27.014Z,100.00
2023-03-20T01:01:54.759Z,100.00
2023-03-20T01:04:36.344Z,100.00
2023-03-20T01:07:06.196Z,100.00
2023-03-20T01:09:34.591Z,100.00
2023-03-20T01:12:02.770Z,100.00
2023-03-20T01:14:30.569Z,100.00
2023-03-20T01:17:01.232Z,100.00
2023-03-20T01:19:28.917Z,100.00
2023-03-20T01:21:56.883Z,100.00
2023-03-20T01:24:26.261Z,100.00
2023-03-20T01:26:54.806Z,100.00
2023-03-20T01:29:24.690Z,100.00
2023-03-20T01:31:53.483Z,100.00
2023-03-20T01:34:21.479Z,100.00
2023-03-20T01:36:52.391Z,100.00
2023-03-20T01:39:21.931Z,100.00
2023-03-20T01:41:52.092Z,100.00
2023-03-20T01:44:22.512Z,100.00
2023-03-20T01:46:51.371Z,100.00
2023-03-20T01:49:56.232Z,100.00
2023-03-20T01:52:23.943Z,100.00
2023-03-20T01:54:51.921Z,100.00
2023-03-20T01:57:23.020Z,100.00
2023-03-20T01:59:52.930Z,100.00
2023-03-20T02:02:22.897Z,100.00
2023-03-20T02:04:53.774Z,100.00
2023-03-20T02:07:23.075Z,100.00
2023-03-20T02:09:51.238Z,100.00
2023-03-20T02:12:19.544Z,100.00
2023-03-20T02:14:49.386Z,100.00
2023-03-20T02:17:17.068Z,100.00
2023-03-20T02:19:53.452Z,100.00
2023-03-20T02:22:54.710Z,100.00
2023-03-20T02:25:45.404Z,100.00
2023-03-20T02:28:34.698Z,100.00
2023-03-20T02:31:17.930Z,100.00
2023-03-20T02:34:17.434Z,100.00
2023-03-20T02:37:21.974Z,100.00
2023-03-20T02:39:57.654Z,100.00
2023-03-20T02:42:33.770Z,100.00
2023-03-20T02:45:05.700Z,100.00
2023-03-20T02:47:38.967Z,100.00
2023-03-20T02:50:14.908Z,100.00
2023-03-20T02:52:48.779Z,100.00
2023-03-20T02:55:18.514Z,100.00
2023-03-20T02:57:52.953Z,100.00
2023-03-20T03:00:26.441Z,100.00
2023-03-20T03:02:59.484Z,100.00
2023-03-20T03:05:31.994Z,100.00
2023-03-20T03:08:01.794Z,100.00
2023-03-20T03:10:31.917Z,100.00
2023-03-20T03:13:00.439Z,100.00
2023-03-20T03:15:30.720Z,100.00
2023-03-20T03:17:59.460Z,100.00
2023-03-20T03:20:30.825Z,100.00
2023-03-20T03:22:58.640Z,100.00
2023-03-20T03:25:29.862Z,100.00
2023-03-20T03:28:03.614Z,100.00
2023-03-20T03:30:32.802Z,100.00
2023-03-20T03:33:11.162Z,100.00
2023-03-20T03:35:39.575Z,100.00
2023-03-20T03:38:19.466Z,100.00
2023-03-20T03:40:54.337Z,100.00
2023-03-20T03:43:26.519Z,100.00
2023-03-20T03:45:56.505Z,100.00
2023-03-20T03:48:27.577Z,100.00
2023-03-20T03:50:57.439Z,100.00
2023-03-20T03:53:27.666Z,100.00
2023-03-20T03:55:59.821Z,100.00
2023-03-20T03:58:30.572Z,100.00
2023-03-20T04:00:59.826Z,100.00
2023-03-20T04:03:31.612Z,100.00
2023-03-20T04:06:00.043Z,100.00
2023-03-20T04:08:27.843Z,100.00
2023-03-20T04:10:56.963Z,100.00
2023-03-20T04:13:24.636Z,100.00
2023-03-20T04:15:52.439Z,100.00
2023-03-20T04:18:20.704Z,100.00
2023-03-20T04:20:48.867Z,100.00
2023-03-20T04:23:16.996Z,100.00
2023-03-20T04:25:44.656Z,100.00
2023-03-20T04:28:16.366Z,100.00
2023-03-20T04:30:48.234Z,100.00
2023-03-20T04:33:16.472Z,100.00
2023-03-20T04:35:44.200Z,100.00
2023-03-20T04:38:11.911Z,100.00
2023-03-20T04:40:39.562Z,100.00
2023-03-20T04:43:07.554Z,100.00
2023-03-20T04:45:36.958Z,100.00
2023-03-20T04:48:05.182Z,100.00
2023-03-20T04:50:32.855Z,100.00
2023-03-20T04:53:00.775Z,100.00
2023-03-20T04:55:28.394Z,100.00
2023-03-20T04:57:56.042Z,100.00
2023-03-20T05:00:23.765Z,100.00
2023-03-20T05:02:53.129Z,100.00
2023-03-20T05:05:20.803Z,100.00
2023-03-20T05:07:48.483Z,100.00
2023-03-20T05:10:16.549Z,100.00
2023-03-20T05:12:44.209Z,100.00
2023-03-20T05:15:12.553Z,100.00
2023-03-20T05:17:40.409Z,100.00
2023-03-20T05:20:11.033Z,100.00
2023-03-20T05:22:38.668Z,100.00
2023-03-20T05:25:07.111Z,100.00
2023-03-20T05:27:34.896Z,100.00
2023-03-20T05:30:02.566Z,100.00
2023-03-20T05:32:30.380Z,100.00
2023-03-20T05:34:58.016Z,100.00
2023-03-20T05:37:27.121Z,100.00
2023-03-20T05:39:54.982Z,100.00
2023-03-20T05:42:22.626Z,100.00
2023-03-20T05:44:50.270Z,100.00
2023-03-20T05:47:17.912Z,100.00
2023-03-20T05:49:45.614Z,100.00
2023-03-20T05:52:13.375Z,100.00
2023-03-20T05:54:42.431Z,100.00
2023-03-20T05:57:10.034Z,100.00
2023-03-20T05:59:37.689Z,100.00
2023-03-20T06:02:05.317Z,100.00
2023-03-20T06:04:33.076Z,100.00
2023-03-20T06:07:00.732Z,100.00
2023-03-20T06:09:28.805Z,100.00
2023-03-20T06:11:57.846Z,100.00
2023-03-20T06:14:25.784Z,100.00
2023-03-20T06:16:54.096Z,100.00
2023-03-20T06:19:21.784Z,100.00
2023-03-20T06:21:49.877Z,100.00
2023-03-20T06:24:17.882Z,100.00
2023-03-20T06:26:45.660Z,100.00
2023-03-20T06:29:14.941Z,100.00
2023-03-20T06:31:42.727Z,100.00
2023-03-20T06:34:10.438Z,100.00
2023-03-20T06:36:38.176Z,100.00
2023-03-20T06:39:06.475Z,100.00
2023-03-20T06:41:35.153Z,100.00
2023-03-20T06:44:03.749Z,100.00
2023-03-20T06:46:33.078Z,100.00
2023-03-20T06:49:01.380Z,100.00
2023-03-20T06:51:29.080Z,100.00
2023-03-20T06:53:56.749Z,100.00
2023-03-20T06:56:24.749Z,100.00
2023-03-20T06:58:52.409Z,100.00
2023-03-20T07:01:20.717Z,100.00
2023-03-20T07:03:50.504Z,100.00
2023-03-20T07:06:18.904Z,100.00
2023-03-20T07:08:46.635Z,100.00
2023-03-20T07:11:14.418Z,100.00
2023-03-20T07:13:42.144Z,100.00
2023-03-20T07:16:10.462Z,100.00
2023-03-20T07:18:38.427Z,100.00
2023-03-20T07:21:09.704Z,100.00
2023-03-20T07:23:37.816Z,100.00
2023-03-20T07:26:06.783Z,100.00
2023-03-20T07:28:34.494Z,100.00
2023-03-20T07:31:02.217Z,100.00
2023-03-20T07:33:29.932Z,100.00
2023-03-20T07:35:57.689Z,100.00
2023-03-20T07:38:26.837Z,100.00
2023-03-20T07:40:55.360Z,100.00
2023-03-20T07:43:23.256Z,100.00
2023-03-20T07:45:51.655Z,100.00
2023-03-20T07:48:19.381Z,100.00
2023-03-20T07:50:47.052Z,100.00
2023-03-20T07:53:14.907Z,100.00
2023-03-20T07:55:45.135Z,100.00
2023-03-20T07:58:12.800Z,100.00
2023-03-20T08:00:40.776Z,100.00
2023-03-20T08:03:09.078Z,100.00
2023-03-20T08:05:37.268Z,100.00
2023-03-20T08:08:05.758Z,100.00
2023-03-20T08:10:33.773Z,99.07
2023-03-20T08:13:02.877Z,97.88
2023-03-20T08:15:30.944Z,99.93
2023-03-20T08:17:58.859Z,96.91
2023-03-20T08:20:27.209Z,96.18
2023-03-20T08:22:54.914Z,95.58
2023-03-20T08:25:22.699Z,92.29
2023-03-20T08:27:50.768Z,96.04
2023-03-20T08:30:19.998Z,97.11
2023-03-20T08:32:47.978Z,95.72
2023-03-20T08:35:31.470Z,92.80
2023-03-20T08:38:03.898Z,92.42
2023-03-20T08:40:32.184Z,91.56
2023-03-20T08:42:59.930Z,89.93
2023-03-20T08:45:29.055Z,89.30
2023-03-20T08:47:56.825Z,88.55
2023-03-20T08:50:24.655Z,90.92
2023-03-20T08:52:52.468Z,89.30
2023-03-20T08:55:20.186Z,86.73
2023-03-20T08:57:48.167Z,85.19
2023-03-20T09:00:17.363Z,84.56
2023-03-20T09:02:46.514Z,84.34
2023-03-20T09:05:14.429Z,81.41
2023-03-20T09:07:42.184Z,79.21
2023-03-20T09:10:11.438Z,78.46
2023-03-20T09:12:39.389Z,78.03
2023-03-20T09:15:08.180Z,78.12
2023-03-20T09:17:35.962Z,78.25
2023-03-20T09:20:06.584Z,77.79
2023-03-20T09:22:34.370Z,74.90
2023-03-20T09:25:02.066Z,73.10
2023-03-20T09:27:45.527Z,72.23
2023-03-20T09:30:34.649Z,71.61
2023-03-20T09:33:02.587Z,72.32
2023-03-20T09:35:32.331Z,71.04
2023-03-20T09:38:00.052Z,70.20
2023-03-20T09:40:30.606Z,69.68
2023-03-20T09:43:03.804Z,70.38
2023-03-20T09:45:41.930Z,71.39
2023-03-20T09:48:16.063Z,72.03
2023-03-20T09:50:50.306Z,69.79
2023-03-20T09:53:22.043Z,70.04
2023-03-20T09:55:50.360Z,66.86
2023-03-20T09:58:22.366Z,69.24
2023-03-20T10:00:50.277Z,69.78
2023-03-20T10:03:20.538Z,69.82
2023-03-20T10:05:53.537Z,69.89
2023-03-20T10:08:25.002Z,70.92
2023-03-20T10:10:55.234Z,70.27
2023-03-20T10:16:40.995Z,68.04
2023-03-20T10:19:18.038Z,68.14
2023-03-20T10:21:49.589Z,66.12
2023-03-20T10:24:21.259Z,66.78
2023-03-20T10:26:53.105Z,67.62
2023-03-20T10:29:28.759Z,67.70
2023-03-20T10:32:00.431Z,64.49
2023-03-20T10:34:41.536Z,65.87
2023-03-20T10:37:22.265Z,62.53
2023-03-20T10:39:56.390Z,62.69
2023-03-20T10:42:27.702Z,62.69
2023-03-20T10:44:57.954Z,63.50
2023-03-20T10:47:28.537Z,63.75
2023-03-20T10:49:59.347Z,62.89
2023-03-20T10:52:32.372Z,64.32
2023-03-20T10:55:02.433Z,63.86
2023-03-20T10:57:32.119Z,62.51
2023-03-20T11:00:00.874Z,62.75
2023-03-20T11:05:25.633Z,61.78
2023-03-20T11:08:02.923Z,61.67
2023-03-20T11:10:33.406Z,60.68
2023-03-20T11:13:13.048Z,61.22
2023-03-20T11:15:41.176Z,60.23
2023-03-20T11:18:14.449Z,59.17
2023-03-20T11:20:46.816Z,59.61
2023-03-20T11:23:18.984Z,58.87
2023-03-20T11:25:51.498Z,58.83
2023-03-20T11:28:28.359Z,59.07
2023-03-20T11:31:04.853Z,57.70
2023-03-20T11:33:33.696Z,57.90
2023-03-20T11:36:01.510Z,56.89
2023-03-20T11:38:31.339Z,57.64
2023-03-20T11:40:59.078Z,56.28
2023-03-20T11:43:30.592Z,57.29
2023-03-20T11:46:00.707Z,56.75
2023-03-20T11:48:38.484Z,58.37
2023-03-20T11:51:08.686Z,59.74
2023-03-20T11:53:40.640Z,58.83
2023-03-20T11:56:11.897Z,58.18
2023-03-20T11:58:47.647Z,60.51
2023-03-20T12:01:15.685Z,56.92
2023-03-20T12:03:55.492Z,59.20
2023-03-20T12:06:26.347Z,59.32
2023-03-20T12:09:00.575Z,58.78
2023-03-20T12:11:46.550Z,58.63
2023-03-20T12:14:21.069Z,58.55
2023-03-20T12:16:51.161Z,59.02
2023-03-20T12:19:21.809Z,59.92
2023-03-20T12:21:55.351Z,59.25
2023-03-20T12:24:31.274Z,58.40
2023-03-20T12:27:02.188Z,57.77
2023-03-20T12:29:32.893Z,58.91
2023-03-20T12:32:04.305Z,60.23
2023-03-20T12:34:35.689Z,61.18
2023-03-20T12:37:03.379Z,61.85
2023-03-20T12:39:36.461Z,62.18
2023-03-20T12:42:10.657Z,62.35
2023-03-20T12:44:40.883Z,63.45
2023-03-20T12:47:18.043Z,63.74
2023-03-20T12:49:54.229Z,66.17
2023-03-20T12:52:30.727Z,67.93
2023-03-20T12:55:25.729Z,70.36
2023-03-20T12:58:07.467Z,71.33
2023-03-20T13:00:38.521Z,71.46
2023-03-20T13:03:11.958Z,72.63
2023-03-20T13:05:46.570Z,74.66
2023-03-20T13:08:32.484Z,78.04
2023-03-20T13:11:04.449Z,81.60
2023-03-20T13:13:35.005Z,84.26
2023-03-20T13:16:11.164Z,84.23
2023-03-20T13:18:48.614Z,85.15
2023-03-20T13:21:21.032Z,82.66
2023-03-20T13:23:53.923Z,83.66
2023-03-20T13:26:30.697Z,81.20
2023-03-20T13:29:03.609Z,81.37
2023-03-20T13:31:38.163Z,82.14
2023-03-20T13:34:14.198Z,83.96
2023-03-20T13:39:32.930Z,82.83
2023-03-20T13:42:02.983Z,84.57
2023-03-20T13:44:31.703Z,82.28
2023-03-20T13:47:02.275Z,82.95
2023-03-20T13:49:35.804Z,81.71
2023-03-20T13:52:08.300Z,81.67
2023-03-20T13:54:47.895Z,81.21
2023-03-20T13:57:27.513Z,81.75
2023-03-20T14:00:00.625Z,86.39
2023-03-20T14:02:55.048Z,85.00
2023-03-20T14:05:44.831Z,86.82
2023-03-20T14:08:32.547Z,85.42
2023-03-20T14:11:13.160Z,83.91
2023-03-20T14:13:45.397Z,83.41
2023-03-20T14:16:16.055Z,85.59
2023-03-20T14:18:44.964Z,85.99
2023-03-20T14:21:14.813Z,84.71
2023-03-20T14:23:47.054Z,87.49
2023-03-20T14:26:21.885Z,87.09
2023-03-20T14:29:00.838Z,87.30
2023-03-20T14:31:34.176Z,86.27
2023-03-20T14:34:14.268Z,86.82
2023-03-20T14:36:47.231Z,88.37
2023-03-20T14:39:27.477Z,88.80
2023-03-20T14:42:02.027Z,87.66
2023-03-20T14:44:39.937Z,87.42
2023-03-20T14:47:16.918Z,87.10
2023-03-20T14:49:51.857Z,88.09
2023-03-20T14:52:34.895Z,87.46
2023-03-20T14:55:30.440Z,89.07
2023-03-20T14:57:58.580Z,87.38
2023-03-20T15:00:30.024Z,88.94
2023-03-20T15:03:06.667Z,90.39
2023-03-20T15:05:36.414Z,88.50
2023-03-20T15:08:06.456Z,89.95
2023-03-20T15:10:37.329Z,89.24
2023-03-20T15:13:06.738Z,89.84
2023-03-20T15:15:55.933Z,90.43
2023-03-20T15:18:25.488Z,90.28
2023-03-20T15:20:53.729Z,88.88
2023-03-20T15:23:21.494Z,89.13
2023-03-20T15:25:50.722Z,90.61
2023-03-20T15:28:21.352Z,91.35
2023-03-20T15:30:51.062Z,91.92
2023-03-20T15:33:24.722Z,94.01
2023-03-20T15:35:52.905Z,95.92
2023-03-20T15:38:20.940Z,96.88
2023-03-20T15:40:51.451Z,99.08
2023-03-20T15:43:21.684Z,99.46
2023-03-20T15:45:50.742Z,100.00
2023-03-20T15:48:25.932Z,100.00
2023-03-20T15:50:56.316Z,100.00
2023-03-20T15:53:28.338Z,100.00
2023-03-20T15:56:16.983Z,100.00
2023-03-20T15:58:46.660Z,100.00
2023-03-20T16:01:18.935Z,100.00
2023-03-20T16:03:48.647Z,100.00
2023-03-20T16:06:20.748Z,100.00
2023-03-20T16:08:58.365Z,100.00
2023-03-20T16:11:26.817Z,100.00
2023-03-20T16:13:55.703Z,100.00
2023-03-20T16:16:25.134Z,100.00
2023-03-20T16:18:54.455Z,100.00
2023-03-20T16:21:24.700Z,100.00
2023-03-20T16:23:54.707Z,100.00
2023-03-20T16:26:24.448Z,100.00
2023-03-20T16:28:54.334Z,100.00
2023-03-20T16:31:24.144Z,100.00
2023-03-20T16:33:52.076Z,100.00
2023-03-20T16:36:23.824Z,100.00
2023-03-20T16:39:19.668Z,100.00
2023-03-20T16:41:50.201Z,100.00
2023-03-20T16:44:19.846Z,100.00
2023-03-20T16:47:00.754Z,100.00
2023-03-20T16:49:51.566Z,100.00
2023-03-20T16:52:43.303Z,100.00
2023-03-20T16:55:17.735Z,100.00
2023-03-20T16:57:48.327Z,100.00
2023-03-20T17:00:27.477Z,100.00
2023-03-20T17:03:08.319Z,100.00
2023-03-20T17:05:50.639Z,100.00
2023-03-20T17:08:28.791Z,100.00
2023-03-20T17:11:00.023Z,100.00
2023-03-20T17:13:27.732Z,100.00
2023-03-20T17:15:55.907Z,100.00
2023-03-20T17:18:24.113Z,100.00
2023-03-20T17:20:52.139Z,100.00
2023-03-20T17:23:23.792Z,100.00
2023-03-20T17:25:51.844Z,100.00
2023-03-20T17:28:21.957Z,100.00
2023-03-20T17:30:51.515Z,100.00
2023-03-20T17:33:21.091Z,100.00
2023-03-20T17:35:49.711Z,100.00
2023-03-20T17:38:19.937Z,100.00
2023-03-20T17:40:50.121Z,100.00
2023-03-20T17:43:19.511Z,100.00
2023-03-20T17:45:48.427Z,100.00
2023-03-20T17:48:18.088Z,100.00
2023-03-20T17:50:46.593Z,100.00
2023-03-20T17:53:16.892Z,100.00
2023-03-20T17:55:44.738Z,100.00
2023-03-20T17:58:18.413Z,100.00
2023-03-20T18:00:46.349Z,100.00
2023-03-20T18:03:15.323Z,100.00
2023-03-20T18:05:43.265Z,100.00
2023-03-20T18:08:14.612Z,100.00
2023-03-20T18:10:43.097Z,100.00
2023-03-20T18:13:10.878Z,100.00
2023-03-20T18:15:40.861Z,100.00
2023-03-20T18:18:08.983Z,100.00
2023-03-20T18:20:38.528Z,100.00
2023-03-20T18:23:06.432Z,100.00
2023-03-20T18:25:34.166Z,100.00
2023-03-20T18:28:03.404Z,100.00
2023-03-20T18:30:34.923Z,100.00
2023-03-20T18:33:04.465Z,100.00
2023-03-20T18:35:33.015Z,100.00
2023-03-20T18:38:00.754Z,100.00
2023-03-20T18:40:30.230Z,100.00
2023-03-20T18:42:58.598Z,100.00
2023-03-20T18:45:28.120Z,100.00
2023-03-20T18:47:57.138Z,100.00
2023-03-20T18:50:27.786Z,100.00
2023-03-20T18:52:56.838Z,100.00
2023-03-20T18:55:25.821Z,100.00
2023-03-20T18:57:53.520Z,100.00
2023-03-20T19:00:23.266Z,100.00
2023-03-20T19:02:52.060Z,100.00
2023-03-20T19:05:20.431Z,100.00
2023-03-20T19:07:50.294Z,100.00
2023-03-20T19:10:27.314Z,100.00
2023-03-20T19:12:56.590Z,100.00
2023-03-20T19:15:29.529Z,100.00
2023-03-20T19:17:58.361Z,100.00
2023-03-20T19:20:36.142Z,100.00
2023-03-20T19:23:07.054Z,100.00
2023-03-20T19:25:36.285Z,100.00
2023-03-20T19:28:05.479Z,100.00
2023-03-20T19:30:35.125Z,100.00
2023-03-20T19:33:03.605Z,100.00
2023-03-20T19:36:02.360Z,100.00
2023-03-20T19:38:22.939Z,100.00
2023-03-20T19:40:53.048Z,100.00
2023-03-20T19:43:21.780Z,100.00
2023-03-20T19:45:51.943Z,100.00
2023-03-20T19:48:21.080Z,100.00
2023-03-20T19:50:51.212Z,100.00
2023-03-20T19:53:21.426Z,100.00
2023-03-20T19:55:50.717Z,100.00
2023-03-20T19:58:18.655Z,100.00
2023-03-20T20:01:12.177Z,100.00
2023-03-20T20:03:38.035Z,100.00
2023-03-20T20:06:06.113Z,100.00
2023-03-20T20:08:46.922Z,100.00
2023-03-20T20:11:17.599Z,100.00
2023-03-20T20:14:07.114Z,100.00
2023-03-20T20:16:34.848Z,100.00
2023-03-20T20:19:02.679Z,100.00
2023-03-20T20:24:18.148Z,100.00
2023-03-20T20:26:55.477Z,100.00
2023-03-20T20:29:31.236Z,100.00
2023-03-20T20:32:01.770Z,100.00
2023-03-20T20:40:06.455Z,100.00
2023-03-20T20:42:37.081Z,100.00
2023-03-20T20:45:05.894Z,100.00
2023-03-20T20:47:33.859Z,100.00
2023-03-20T20:50:03.870Z,100.00
2023-03-20T20:52:31.688Z,100.00
2023-03-20T20:55:18.195Z,100.00
2023-03-20T20:57:49.351Z,100.00
2023-03-20T21:00:18.421Z,100.00
2023-03-20T21:02:46.213Z,100.00
2023-03-20T21:05:15.291Z,100.00
2023-03-20T21:07:44.115Z,100.00
2023-03-20T21:10:14.197Z,100.00
2023-03-20T21:12:57.782Z,100.00
2023-03-20T21:15:27.572Z,100.00
2023-03-20T21:18:01.234Z,100.00
2023-03-20T21:20:30.064Z,100.00
2023-03-20T21:22:57.733Z,100.00
2023-03-20T21:25:39.287Z,100.00
2023-03-20T21:28:08.790Z,100.00
2023-03-20T21:30:44.136Z,100.00
2023-03-20T21:33:18.706Z,100.00
2023-03-20T21:35:46.586Z,100.00
2023-03-20T21:41:08.566Z,100.00
2023-03-20T21:43:36.260Z,100.00
2023-03-20T21:46:37.486Z,100.00
2023-03-20T21:55:05.903Z,100.00
2023-03-20T21:57:55.679Z,100.00
2023-03-20T22:02:59.630Z,100.00
2023-03-20T22:09:19.835Z,100.00
2023-03-20T22:14:54.627Z,100.00
2023-03-20T22:23:15.225Z,100.00
2023-03-20T22:25:53.011Z,100.00
2023-03-20T22:40:03.243Z,100.00
2023-03-20T22:45:00.575Z,100.00
2023-03-20T22:47:30.468Z,100.00
2023-03-20T22:49:58.155Z,100.00
2023-03-20T22:52:38.339Z,100.00
2023-03-20T22:55:14.896Z,100.00
2023-03-20T22:57:53.025Z,100.00
2023-03-20T23:00:30.614Z,100.00
2023-03-20T23:03:11.471Z,100.00
2023-03-20T23:05:43.441Z,100.00
2023-03-20T23:08:13.152Z,100.00
2023-03-20T23:10:43.986Z,100.00
2023-03-20T23:13:11.772Z,100.00
2023-03-20T23:15:39.628Z,100.00
2023-03-20T23:18:07.703Z,100.00
2023-03-20T23:20:36.405Z,100.00
2023-03-20T23:23:04.181Z,100.00
2023-03-20T23:25:39.296Z,100.00
2023-03-20T23:28:08.468Z,100.00
2023-03-20T23:31:07.368Z,100.00
2023-03-20T23:33:24.345Z,100.00
2023-03-20T23:36:01.207Z,100.00
2023-03-20T23:38:32.933Z,100.00
2023-03-20T23:41:01.990Z,100.00
2023-03-20T23:43:29.991Z,100.00
2023-03-20T23:45:57.889Z,100.00
2023-03-20T23:48:25.926Z,100.00
2023-03-20T23:50:53.920Z,100.00
2023-03-20T23:53:21.641Z,100.00
2023-03-20T23:58:16.937Z,100.00
